Latest  Newer  Older  Last 2 hours animation  Current image  Latest image 
Rain/snow radar  Infrared sat images 
Real-time lightning map

All time is UTC (add 2 hours to UTC in wintertime, 3 hours to UTC in DST for Latvia local time)

2017/12/12 17:50 EVRA 121750Z 20014KT 170V230 9999 BKN019 SCT026CB OVC048 07/05 Q0991 R18/290195 NOSIG
2017/12/12 17:50 EVLA 121750Z AUTO 22026KT 9999 FEW016/// SCT022/// OVC038/// 06/03 Q0991
2017/12/12 17:50 EVVA 121750Z AUTO 23016KT 4300 RA SCT010 BKN016 OVC023 06/05 Q0988
2017/12/12 17:50 EYKA 121750Z 22013KT 190V250 9999 SCT044 OVC060 08/01 Q0998 R08/29//95
2017/12/12 17:50 EYPA 121750Z 24013G24KT 200V300 9999 BKN019 BKN060 06/03 Q0993 R19/2///95
2017/12/12 17:50 EYSA 121750Z 21014KT 9999 -RA SCT018 OVC036 06/04 Q0994 R14L/29//95 R14R/29//95 WHT NOSIG
2017/12/12 17:50 EYVI 121750Z 20011KT 9999 BKN032 BKN055 06/04 Q1000 R19/2///95 NOSIG
2017/12/12 15:50 EEKA 121550Z 19008KT 9000 DZ SCT003 BKN006 OVC014 05/05 Q0983
2017/12/12 17:34 EEKE 121734Z AUTO 23013KT 9000NDV -RA BKN011 BKN014 OVC021 06/05 Q0985
2017/12/12 13:50 EEPU 121350Z 18009KT 140V220 2700 -RA BR SCT004 BKN005 OVC006 04/04 Q0987
2017/12/12 17:50 EETN 121750Z 18010KT 150V210 9999 BKN005 OVC012 04/04 Q0984 R08/650295 NOSIG
2017/12/12 16:50 EETU 121650Z AUTO 20011KT 170V230 9999 OVC008/// 03/02 Q0990
   RIGA AIRPORT     EVRA               56 55N  023 58E   10   X     T          6 LV
   LIEPAJA INTL     EVLA        26406  56 31N  021 06E    4   X                8 LV
   VENTPILS         EVVA               57 21N  021 33E    6   X                8 LV
   KAUNAS           EYKA               54 54N  023 55E   77   X     T          6 LT
   PALANGA INTL     EYPA               55 55N  021 03E   10   X                6 LT
   SIAULIAI INTL    EYSA               55 54N  023 24E  135   X     T          6 LT
   VILNIUS INTL     EYVI        26730  54 38N  025 17E  197   X     T          6 LT
   KARDLA           EEKA        26116  58 59N  022 50E    4   X                8 EE
   KURESSAARE       EEKE               58 14N  022 31E    4   X                8 EE
   PARNU            EEPU               58 25N  024 28E   14   X                8 EE
   TALLINN          EETN        26038  59 24N  024 49E   40   X     T          8 EE
   TARTU            EETU               58 19N  026 41E   67   X                8 EE

cloud coverage image from sat24.com and METAR data from weather.noaa.gov